Time;durP1;ratioP1;P1;durP2;ratioP2;P2;SDS_P1;SDS_P2;PMS_P1;PMS_P2;Temp;Humidity;BMP_temperature;BMP_pressure;BME280_temperature;BME280_humidity;BME280_pressure;Samples;Min_cycle;Max_cycle;Signal;HPM_P1;HPM_P2
2023/10/17 00:01:18;;;;;;;10.93;8.90;;;8.30;99.90;;;;;;5051856;28;20214;-78
2023/10/17 00:03:47;;;;;;;13.03;8.67;;;8.30;99.90;;;;;;5049038;28;20206;-79
2023/10/17 00:06:16;;;;;;;12.67;8.07;;;8.30;99.90;;;;;;5070015;28;20647;-79
2023/10/17 00:08:50;;;;;;;9.60;8.40;;;8.20;99.90;;;;;;5051878;28;20198;-79
2023/10/17 00:11:18;;;;;;;10.93;9.33;;;8.20;99.90;;;;;;5053723;28;20229;-78
2023/10/17 00:16:32;;;;;;;14.23;9.80;;;8.30;99.90;;;;;;5048753;28;21654;-79
2023/10/17 00:19:04;;;;;;;10.93;8.33;;;8.30;99.90;;;;;;5054250;28;20197;-79
2023/10/17 00:21:33;;;;;;;10.60;9.10;;;8.30;99.90;;;;;;5068849;28;20236;-79
2023/10/17 00:24:08;;;;;;;13.50;9.07;;;8.30;99.90;;;;;;5068777;28;20202;-80
2023/10/17 00:26:37;;;;;;;11.73;8.73;;;8.30;99.90;;;;;;5051238;28;20197;-79
2023/10/17 00:29:08;;;;;;;10.67;8.47;;;8.30;99.90;;;;;;5053102;28;20209;-79
2023/10/17 00:31:36;;;;;;;10.33;8.70;;;8.30;99.90;;;;;;5049996;28;20221;-78
2023/10/17 00:34:13;;;;;;;10.60;8.53;;;8.30;99.90;;;;;;5052214;28;20198;-79
2023/10/17 00:36:47;;;;;;;10.27;8.60;;;8.30;99.90;;;;;;5045088;28;20583;-79
2023/10/17 00:39:22;;;;;;;9.57;8.50;;;8.30;99.90;;;;;;5049215;28;20196;-79
2023/10/17 00:41:52;;;;;;;9.77;8.30;;;8.30;99.90;;;;;;5062958;28;20808;-79
2023/10/17 00:44:30;;;;;;;9.60;8.23;;;8.30;99.90;;;;;;5053063;28;20224;-79
2023/10/17 00:46:57;;;;;;;12.20;8.83;;;8.20;99.90;;;;;;5044652;28;20197;-79
2023/10/17 00:49:29;;;;;;;10.30;9.00;;;8.20;99.90;;;;;;5048422;28;20197;-80
2023/10/17 00:51:59;;;;;;;9.57;8.57;;;8.30;99.90;;;;;;5053904;28;20229;-79
2023/10/17 00:54:29;;;;;;;10.33;8.30;;;8.40;99.90;;;;;;5071928;28;20193;-80
2023/10/17 00:57:00;;;;;;;10.50;9.03;;;8.40;99.90;;;;;;5048355;28;20218;-79
2023/10/17 00:59:29;;;;;;;11.03;8.73;;;8.60;99.90;;;;;;5052857;28;20558;-80
2023/10/17 01:01:57;;;;;;;11.57;9.60;;;8.70;99.90;;;;;;5046092;28;20217;-79
2023/10/17 01:04:25;;;;;;;10.00;9.00;;;8.80;99.90;;;;;;5053800;28;20560;-79
2023/10/17 01:06:55;;;;;;;14.47;9.53;;;8.90;99.90;;;;;;5071184;28;20272;-79
2023/10/17 01:09:24;;;;;;;10.13;8.77;;;8.90;99.90;;;;;;5047528;28;20190;-79
2023/10/17 01:11:54;;;;;;;10.00;8.80;;;8.80;99.90;;;;;;5070415;28;20232;-78
2023/10/17 01:14:23;;;;;;;10.10;9.07;;;8.60;99.90;;;;;;5048182;28;20542;-79
2023/10/17 01:16:52;;;;;;;12.03;8.53;;;8.60;99.90;;;;;;5053822;28;20214;-79
2023/10/17 01:19:21;;;;;;;10.67;8.50;;;8.60;99.90;;;;;;5052331;28;20247;-79
2023/10/17 01:21:50;;;;;;;9.90;8.90;;;8.60;99.90;;;;;;5053555;28;20230;-79
2023/10/17 01:24:19;;;;;;;8.87;7.47;;;8.60;99.90;;;;;;5049142;28;20651;-79
2023/10/17 01:26:46;;;;;;;8.83;7.93;;;8.50;99.90;;;;;;5048119;28;20213;-79
2023/10/17 01:29:14;;;;;;;9.63;8.73;;;8.70;99.90;;;;;;5053508;28;20209;-79
2023/10/17 01:31:43;;;;;;;11.17;8.53;;;8.70;99.90;;;;;;5051426;28;20220;-80
2023/10/17 01:34:12;;;;;;;9.67;8.57;;;8.70;99.90;;;;;;5045464;28;20205;-79
2023/10/17 01:36:40;;;;;;;11.77;8.07;;;8.70;99.90;;;;;;5064229;28;20209;-80
2023/10/17 01:39:08;;;;;;;10.53;8.50;;;8.80;99.90;;;;;;5065089;28;20200;-79
2023/10/17 01:41:41;;;;;;;9.97;8.93;;;8.70;99.90;;;;;;5046753;28;20214;-78
2023/10/17 01:44:09;;;;;;;11.57;8.93;;;8.50;99.90;;;;;;5052250;28;20197;-79
2023/10/17 01:46:38;;;;;;;9.80;8.73;;;8.40;99.90;;;;;;5059912;28;20558;-79
2023/10/17 01:49:12;;;;;;;9.67;8.70;;;8.40;99.90;;;;;;5052081;28;20198;-79
2023/10/17 01:51:42;;;;;;;10.63;8.80;;;8.30;99.90;;;;;;5066721;28;20216;-79
2023/10/17 01:54:12;;;;;;;12.43;9.17;;;8.30;99.90;;;;;;5043631;28;20202;-79
2023/10/17 01:56:47;;;;;;;11.57;8.87;;;8.30;99.90;;;;;;5046381;28;20218;-79
2023/10/17 01:59:17;;;;;;;11.67;9.33;;;8.40;99.90;;;;;;5053091;28;20201;-79
2023/10/17 02:01:46;;;;;;;12.83;9.40;;;8.60;99.90;;;;;;5062583;28;20688;-79
2023/10/17 02:04:15;;;;;;;12.77;9.57;;;8.40;99.90;;;;;;5067128;28;20224;-79
2023/10/17 02:06:43;;;;;;;10.63;9.23;;;8.30;99.90;;;;;;5049231;28;20658;-78
2023/10/17 02:09:23;;;;;;;10.90;9.80;;;8.30;99.90;;;;;;5050065;28;20205;-79
2023/10/17 02:11:54;;;;;;;11.23;9.40;;;8.30;99.90;;;;;;5067147;28;20218;-78
2023/10/17 02:14:22;;;;;;;11.00;9.27;;;8.20;99.90;;;;;;5043797;28;20209;-78
2023/10/17 02:16:50;;;;;;;10.53;9.43;;;8.00;99.90;;;;;;5047146;28;20718;-78
2023/10/17 02:19:19;;;;;;;9.60;8.70;;;8.00;99.90;;;;;;5063308;28;20206;-79
2023/10/17 02:21:50;;;;;;;13.63;10.03;;;8.20;99.90;;;;;;5047042;28;20714;-78
2023/10/17 02:24:20;;;;;;;11.03;9.20;;;8.30;99.90;;;;;;5061312;28;20202;-79
2023/10/17 02:26:55;;;;;;;12.83;10.57;;;8.50;99.90;;;;;;5057110;28;20216;-78
2023/10/17 02:29:26;;;;;;;10.80;9.70;;;8.40;99.90;;;;;;5044132;28;20204;-78
2023/10/17 02:31:56;;;;;;;11.53;9.13;;;8.40;99.90;;;;;;5065433;28;20213;-78
2023/10/17 02:34:29;;;;;;;12.63;9.87;;;8.40;99.90;;;;;;5049614;28;20212;-78
2023/10/17 02:37:00;;;;;;;10.83;9.43;;;8.30;99.90;;;;;;5047180;28;20225;-78
2023/10/17 02:39:27;;;;;;;11.70;10.07;;;8.20;99.90;;;;;;5047560;28;20201;-79
2023/10/17 02:41:58;;;;;;;11.17;9.50;;;8.20;99.90;;;;;;5045756;28;20225;-78
2023/10/17 02:44:27;;;;;;;12.20;9.50;;;8.20;99.90;;;;;;5045710;28;20198;-79
2023/10/17 02:46:58;;;;;;;12.37;10.37;;;8.10;99.90;;;;;;5049160;28;20205;-79
2023/10/17 02:49:36;;;;;;;10.60;8.97;;;8.10;99.90;;;;;;5047891;28;20647;-78
2023/10/17 02:52:04;;;;;;;12.13;9.77;;;8.00;99.90;;;;;;5063549;28;20224;-78
2023/10/17 02:54:42;;;;;;;10.40;9.33;;;7.90;99.90;;;;;;5070417;28;20198;-79
2023/10/17 02:57:09;;;;;;;10.77;9.47;;;7.90;99.90;;;;;;5058311;28;20216;-78
2023/10/17 02:59:39;;;;;;;11.37;10.00;;;7.90;99.90;;;;;;5050803;28;20209;-79
2023/10/17 03:02:07;;;;;;;10.70;9.60;;;8.00;99.90;;;;;;5048484;28;20218;-79
2023/10/17 03:04:36;;;;;;;11.17;9.73;;;7.90;99.90;;;;;;5057748;28;20198;-79
2023/10/17 03:07:07;;;;;;;10.60;9.40;;;7.90;99.90;;;;;;5044954;28;20213;-78
2023/10/17 03:09:38;;;;;;;10.53;8.93;;;7.90;99.90;;;;;;5051585;28;20563;-79
2023/10/17 03:12:09;;;;;;;10.90;9.80;;;8.00;99.90;;;;;;5063064;28;20280;-78
2023/10/17 03:15:17;;;;;;;11.90;10.13;;;8.00;99.90;;;;;;5042278;28;20194;-79
2023/10/17 03:17:28;;;;;;;11.67;10.03;;;7.90;99.90;;;;;;5066632;28;20217;-79
2023/10/17 03:19:57;;;;;;;11.07;9.83;;;7.90;99.90;;;;;;5063305;28;20213;-79
2023/10/17 03:22:27;;;;;;;12.73;9.37;;;7.90;99.90;;;;;;5043789;28;20236;-79
2023/10/17 03:25:01;;;;;;;11.00;9.73;;;7.90;99.90;;;;;;5052029;28;20201;-79
2023/10/17 03:27:48;;;;;;;10.93;9.50;;;7.90;99.90;;;;;;5048341;28;20208;-79
2023/10/17 03:30:20;;;;;;;9.83;8.83;;;7.80;99.90;;;;;;5044030;28;20185;-78
2023/10/17 03:33:03;;;;;;;11.73;9.97;;;8.00;99.90;;;;;;5051568;28;20224;-79
2023/10/17 03:35:35;;;;;;;10.53;9.43;;;8.10;99.90;;;;;;5061436;28;20201;-79
2023/10/17 03:38:03;;;;;;;11.70;9.47;;;8.10;99.90;;;;;;5048354;28;20704;-78
2023/10/17 03:40:51;;;;;;;10.13;8.97;;;8.10;99.90;;;;;;5051920;28;20194;-79
2023/10/17 03:43:21;;;;;;;10.07;9.10;;;8.10;99.90;;;;;;5047278;28;20190;-78
2023/10/17 03:45:56;;;;;;;11.00;8.97;;;8.10;99.90;;;;;;5048507;28;20208;-79
2023/10/17 03:48:24;;;;;;;10.23;8.60;;;8.10;99.90;;;;;;5052167;28;20197;-78
2023/10/17 03:51:10;;;;;;;13.03;9.20;;;8.10;99.90;;;;;;5049007;28;20225;-78
2023/10/17 03:53:44;;;;;;;11.60;9.57;;;8.10;99.90;;;;;;5047027;28;20212;-79
2023/10/17 03:56:23;;;;;;;9.50;8.60;;;8.00;99.90;;;;;;5049444;28;20193;-79
2023/10/17 03:58:54;;;;;;;12.13;9.47;;;8.00;99.90;;;;;;5050878;28;20312;-79
2023/10/17 04:01:24;;;;;;;9.73;8.83;;;7.90;99.90;;;;;;5048234;28;20218;-79
2023/10/17 04:03:54;;;;;;;10.77;9.67;;;7.90;99.90;;;;;;5050596;28;20202;-79
2023/10/17 04:06:34;;;;;;;11.53;9.63;;;7.90;99.90;;;;;;5040957;28;20206;-79
2023/10/17 04:09:25;;;;;;;10.13;8.60;;;7.90;99.90;;;;;;5067584;28;20193;-79
2023/10/17 04:11:55;;;;;;;10.53;9.50;;;8.00;99.90;;;;;;5049910;28;20229;-78
2023/10/17 04:14:33;;;;;;;9.90;8.90;;;7.90;99.90;;;;;;5068386;28;20198;-79
2023/10/17 04:17:04;;;;;;;11.17;9.13;;;8.00;99.90;;;;;;5064858;28;20208;-78
2023/10/17 04:19:39;;;;;;;12.50;8.70;;;8.10;99.90;;;;;;5062338;28;20221;-78
2023/10/17 04:22:14;;;;;;;12.00;9.77;;;8.20;99.90;;;;;;5071765;28;20232;-79
2023/10/17 04:24:45;;;;;;;10.50;9.50;;;8.10;99.90;;;;;;5066327;28;20201;-79
2023/10/17 04:27:22;;;;;;;10.63;9.53;;;8.00;99.90;;;;;;5050820;28;20565;-79
2023/10/17 04:29:57;;;;;;;13.33;9.83;;;8.00;99.90;;;;;;5061573;28;20203;-78
2023/10/17 04:32:28;;;;;;;14.13;9.90;;;7.90;99.90;;;;;;5049418;28;20217;-78
2023/10/17 04:34:56;;;;;;;10.43;9.43;;;8.00;99.90;;;;;;5048812;28;20205;-78
2023/10/17 04:40:27;;;;;;;12.30;9.60;;;7.90;99.90;;;;;;5090817;28;20200;-86
2023/10/17 04:43:12;;;;;;;10.33;9.27;;;7.90;99.90;;;;;;5067345;28;20202;-86
2023/10/17 04:45:44;;;;;;;11.57;9.33;;;7.90;99.90;;;;;;5049466;28;20190;-86
2023/10/17 04:48:12;;;;;;;11.87;9.87;;;7.90;99.90;;;;;;5085585;28;20221;-85
2023/10/17 04:50:45;;;;;;;11.90;10.13;;;8.00;99.90;;;;;;5067522;28;20217;-86
2023/10/17 04:53:19;;;;;;;12.47;10.40;;;7.90;99.90;;;;;;5044220;28;20224;-86
2023/10/17 04:58:47;;;;;;;10.17;9.17;;;7.90;99.90;;;;;;5126291;27;20607;-85
2023/10/17 05:01:35;;;;;;;11.83;9.93;;;8.00;99.90;;;;;;5106613;28;20193;-85
2023/10/17 05:04:18;;;;;;;11.27;9.70;;;7.90;99.90;;;;;;5101961;28;20569;-85
2023/10/17 06:17:55;;;;;;;10.47;8.37;;;7.80;99.90;;;;;;5098948;28;20220;-82
2023/10/17 06:20:44;;;;;;;13.17;9.90;;;7.80;99.90;;;;;;5083275;28;20216;-82
2023/10/17 06:26:46;;;;;;;9.00;8.10;;;7.90;99.90;;;;;;5096023;28;20204;-83
2023/10/17 06:31:54;;;;;;;11.93;9.50;;;7.90;99.90;;;;;;5082878;28;20209;-83
2023/10/17 06:34:25;;;;;;;11.07;8.80;;;7.90;99.90;;;;;;5112618;27;20209;-83
2023/10/17 06:37:07;;;;;;;10.33;9.30;;;7.90;99.90;;;;;;5093575;28;20220;-82
2023/10/17 06:39:46;;;;;;;11.53;8.73;;;7.80;99.90;;;;;;5096974;28;20228;-82
2023/10/17 06:42:18;;;;;;;11.47;8.90;;;7.80;99.90;;;;;;5081748;28;20206;-83
2023/10/17 06:44:54;;;;;;;10.07;8.40;;;7.80;99.90;;;;;;5090858;28;20201;-83
2023/10/17 06:47:41;;;;;;;9.83;8.67;;;7.90;99.90;;;;;;5082980;28;20208;-82
2023/10/17 06:51:02;;;;;;;12.80;8.90;;;7.80;99.90;;;;;;5083954;28;20197;-83
2023/10/17 06:53:11;;;;;;;12.10;9.73;;;7.90;99.90;;;;;;5098672;28;20208;-83
2023/10/17 06:55:43;;;;;;;11.27;9.27;;;7.90;99.90;;;;;;5088650;28;20209;-83
2023/10/17 06:58:21;;;;;;;10.80;9.07;;;7.90;99.90;;;;;;5084656;28;20562;-84
2023/10/17 07:00:53;;;;;;;11.47;9.33;;;7.90;99.90;;;;;;5079331;28;20228;-83
2023/10/17 07:03:25;;;;;;;10.53;9.50;;;7.90;99.90;;;;;;5085420;28;20197;-84
2023/10/17 07:05:54;;;;;;;12.03;9.67;;;8.10;99.90;;;;;;5098200;28;20189;-87
2023/10/17 07:08:23;;;;;;;11.97;10.33;;;8.20;99.90;;;;;;5080582;28;20209;-83
2023/10/17 07:11:02;;;;;;;12.37;10.67;;;8.20;99.90;;;;;;5082322;28;20204;-84
2023/10/17 07:13:50;;;;;;;12.70;10.90;;;8.10;99.90;;;;;;5080071;28;20216;-84
2023/10/17 07:16:24;;;;;;;13.10;10.40;;;8.20;99.90;;;;;;5076121;28;20564;-83
2023/10/17 07:19:09;;;;;;;12.97;10.57;;;8.10;99.90;;;;;;5093072;28;20224;-83
2023/10/17 07:21:55;;;;;;;13.23;11.30;;;8.20;99.90;;;;;;5096828;28;20204;-83
2023/10/17 07:24:25;;;;;;;13.07;11.13;;;8.30;99.90;;;;;;5089124;28;20555;-83
2023/10/17 07:27:11;;;;;;;14.27;11.37;;;8.40;99.90;;;;;;5095096;28;20223;-83
2023/10/17 07:29:52;;;;;;;14.10;10.83;;;8.30;99.90;;;;;;5095690;28;20221;-84
2023/10/17 07:32:25;;;;;;;15.27;11.20;;;8.40;99.90;;;;;;5087239;28;20200;-82
2023/10/17 07:34:58;;;;;;;14.23;11.43;;;8.30;99.90;;;;;;5096251;28;20204;-83
2023/10/17 07:37:25;;;;;;;12.67;11.27;;;8.40;99.90;;;;;;5075382;28;20224;-82
2023/10/17 07:40:05;;;;;;;12.90;11.10;;;8.60;99.90;;;;;;5097519;28;20216;-82
2023/10/17 07:42:40;;;;;;;13.43;11.90;;;8.70;99.90;;;;;;5098424;28;20204;-82
2023/10/17 07:45:14;;;;;;;16.20;11.47;;;8.70;99.90;;;;;;5096103;28;20189;-82
2023/10/17 07:47:42;;;;;;;13.77;11.60;;;8.60;99.90;;;;;;5073871;28;20675;-82
2023/10/17 07:50:12;;;;;;;12.80;11.37;;;8.60;99.90;;;;;;5107556;28;20647;-82
2023/10/17 07:52:43;;;;;;;12.17;10.67;;;8.60;99.90;;;;;;5099742;28;20193;-82
2023/10/17 07:55:19;;;;;;;16.07;11.30;;;8.60;99.90;;;;;;5081373;28;20197;-82
2023/10/17 07:57:51;;;;;;;13.10;11.60;;;8.60;99.90;;;;;;5100429;28;20224;-82
2023/10/17 08:00:26;;;;;;;16.17;10.93;;;8.70;99.90;;;;;;5114183;28;20193;-82
2023/10/17 08:02:54;;;;;;;13.17;11.33;;;8.70;99.90;;;;;;5091234;28;20204;-82
2023/10/17 08:05:23;;;;;;;15.37;11.80;;;8.60;99.90;;;;;;5083583;28;20655;-82
2023/10/17 08:08:01;;;;;;;15.27;12.13;;;8.60;99.90;;;;;;5099561;28;20212;-82
2023/10/17 08:10:33;;;;;;;15.20;12.20;;;8.70;99.90;;;;;;5095970;28;20567;-82
2023/10/17 08:13:01;;;;;;;15.07;12.10;;;8.80;99.90;;;;;;5095868;28;20193;-82
2023/10/17 08:15:36;;;;;;;14.33;11.50;;;8.60;99.90;;;;;;5088104;28;20200;-82
2023/10/17 08:18:17;;;;;;;17.00;12.63;;;8.70;99.90;;;;;;5095175;28;20222;-82
2023/10/17 08:21:33;;;;;;;15.77;12.57;;;8.80;99.90;;;;;;5093664;28;20666;-82
2023/10/17 08:23:55;;;;;;;13.17;11.23;;;8.80;99.90;;;;;;5082208;28;20224;-82
2023/10/17 08:26:29;;;;;;;14.30;12.40;;;8.70;99.90;;;;;;5101888;28;20193;-82
2023/10/17 08:28:57;;;;;;;16.10;11.90;;;8.80;99.90;;;;;;5081628;28;20220;-82
2023/10/17 08:31:26;;;;;;;15.90;13.10;;;8.70;99.90;;;;;;5071773;28;20678;-82
2023/10/17 08:34:08;;;;;;;14.60;11.53;;;8.60;99.90;;;;;;5076742;28;20209;-82
2023/10/17 08:36:42;;;;;;;17.73;12.73;;;8.80;99.90;;;;;;5110977;28;20208;-82
2023/10/17 08:41:57;;;;;;;15.90;12.40;;;8.90;99.90;;;;;;5109011;28;20200;-82
2023/10/17 08:44:28;;;;;;;16.17;12.87;;;9.10;99.90;;;;;;5100376;28;20193;-82
2023/10/17 08:46:56;;;;;;;15.47;12.67;;;9.10;99.90;;;;;;5079943;28;20207;-82
2023/10/17 08:49:24;;;;;;;15.30;12.53;;;9.00;99.90;;;;;;5085682;28;20232;-82
2023/10/17 08:51:51;;;;;;;15.43;12.27;;;9.10;99.90;;;;;;5096944;28;20196;-82
2023/10/17 08:54:19;;;;;;;15.50;12.23;;;9.30;99.90;;;;;;5092104;28;20194;-82
2023/10/17 08:56:47;;;;;;;15.50;11.93;;;9.40;99.90;;;;;;5098987;28;20209;-82
2023/10/17 08:59:16;;;;;;;16.50;12.53;;;9.60;99.90;;;;;;5096430;28;20701;-82
2023/10/17 09:02:02;;;;;;;13.87;12.03;;;9.70;99.90;;;;;;5102126;28;20201;-82
2023/10/17 09:04:33;;;;;;;17.50;11.97;;;9.80;99.90;;;;;;5092086;28;20209;-82
2023/10/17 09:07:07;;;;;;;15.17;11.77;;;10.00;99.90;;;;;;5083051;28;20558;-82
2023/10/17 09:09:35;;;;;;;13.53;10.87;;;10.00;99.90;;;;;;5099373;28;20216;-82
2023/10/17 09:12:02;;;;;;;13.23;11.27;;;10.00;99.90;;;;;;5084277;28;20193;-82
2023/10/17 09:14:43;;;;;;;13.57;10.67;;;10.00;99.90;;;;;;5100546;28;20188;-82
2023/10/17 09:17:16;;;;;;;18.80;13.30;;;10.20;99.90;;;;;;5084697;28;20200;-82
2023/10/17 09:19:50;;;;;;;13.23;10.93;;;10.30;99.90;;;;;;5096735;28;20225;-82
2023/10/17 09:22:36;;;;;;;11.07;9.97;;;10.20;99.90;;;;;;5086162;28;20196;-83
2023/10/17 09:25:18;;;;;;;13.70;10.87;;;10.10;99.90;;;;;;5084823;28;20193;-82
2023/10/17 09:27:51;;;;;;;13.97;10.30;;;10.30;99.90;;;;;;5109357;28;20216;-82
2023/10/17 09:30:23;;;;;;;11.47;9.57;;;10.50;99.90;;;;;;5088786;28;20189;-82
2023/10/17 09:32:51;;;;;;;14.37;10.77;;;10.30;99.90;;;;;;5092904;28;20203;-82
2023/10/17 09:35:18;;;;;;;14.13;10.13;;;10.40;99.90;;;;;;5086718;28;20204;-82
2023/10/17 09:37:50;;;;;;;12.17;10.20;;;10.60;99.90;;;;;;5099007;28;20221;-82
2023/10/17 09:40:25;;;;;;;12.43;9.50;;;10.70;99.90;;;;;;5092976;28;20196;-82
2023/10/17 09:42:53;;;;;;;9.80;8.80;;;10.90;99.90;;;;;;5096232;28;20212;-82
2023/10/17 09:45:22;;;;;;;11.80;10.07;;;10.80;99.90;;;;;;5093263;28;20577;-82
2023/10/17 09:47:57;;;;;;;11.67;9.40;;;10.70;99.90;;;;;;5101685;28;20225;-82
2023/10/17 09:50:26;;;;;;;11.00;9.23;;;10.80;99.90;;;;;;5100555;28;20243;-82
2023/10/17 09:52:56;;;;;;;12.40;9.07;;;11.00;99.90;;;;;;5113819;28;20204;-82
2023/10/17 09:55:25;;;;;;;10.83;8.97;;;11.10;99.90;;;;;;5102037;28;20250;-82
2023/10/17 09:57:59;;;;;;;13.30;9.57;;;11.40;99.90;;;;;;5115785;28;20231;-82
2023/10/17 10:00:39;;;;;;;9.93;8.57;;;11.30;99.90;;;;;;5105711;28;20215;-82
2023/10/17 10:03:08;;;;;;;10.33;8.77;;;11.40;99.90;;;;;;5095505;28;20200;-80
2023/10/17 10:05:36;;;;;;;10.93;8.97;;;11.30;99.90;;;;;;5096114;28;20224;-82
2023/10/17 10:08:25;;;;;;;9.60;8.50;;;11.40;99.90;;;;;;5087351;28;20220;-82
2023/10/17 10:10:57;;;;;;;10.60;8.10;;;11.50;99.90;;;;;;5084475;28;20208;-81
2023/10/17 10:13:26;;;;;;;9.20;7.80;;;11.60;99.90;;;;;;5093758;28;20206;-82
2023/10/17 10:24:14;;;;;;;9.20;7.53;;;12.20;99.90;;;;;;5055337;28;20173;-83
2023/10/17 10:26:43;;;;;;;10.20;7.90;;;12.30;99.90;;;;;;5033853;28;20214;-82
2023/10/17 10:29:23;;;;;;;8.70;7.28;;;12.40;99.90;;;;;;5053634;28;20213;-82
2023/10/17 10:31:52;;;;;;;7.60;6.83;;;12.30;99.90;;;;;;5080683;28;20204;-82
2023/10/17 10:34:20;;;;;;;7.90;6.80;;;12.50;99.90;;;;;;5088656;28;20197;-81
2023/10/17 10:36:48;;;;;;;7.70;6.90;;;12.50;99.90;;;;;;5090672;28;20205;-82
2023/10/17 10:39:18;;;;;;;8.23;6.45;;;12.50;99.90;;;;;;5084380;28;20220;-81
2023/10/17 10:42:01;;;;;;;7.78;6.03;;;12.30;99.90;;;;;;5092308;28;20201;-82
2023/10/17 10:44:29;;;;;;;7.07;5.88;;;12.50;99.90;;;;;;5087557;28;20202;-81
2023/10/17 10:46:56;;;;;;;6.13;5.53;;;12.80;99.90;;;;;;5097782;28;20220;-82
2023/10/17 10:49:27;;;;;;;6.45;5.47;;;13.00;99.90;;;;;;5081442;28;20562;-82
2023/10/17 10:51:57;;;;;;;6.93;6.00;;;13.00;99.90;;;;;;5084107;28;20204;-82
2023/10/17 10:54:27;;;;;;;6.35;5.70;;;13.10;99.90;;;;;;5086002;28;20567;-81
2023/10/17 10:56:55;;;;;;;6.32;5.50;;;12.90;99.90;;;;;;5099589;28;20208;-81
2023/10/17 10:59:25;;;;;;;5.57;4.78;;;13.00;99.90;;;;;;5080489;28;20220;-82
2023/10/17 11:02:01;;;;;;;5.63;5.05;;;13.80;99.90;;;;;;5083267;28;20554;-81
2023/10/17 11:04:30;;;;;;;6.05;5.13;;;13.60;99.90;;;;;;5082412;28;20542;-81
2023/10/17 11:07:20;;;;;;;10.15;4.18;;;13.80;99.90;;;;;;5087455;28;20200;-81
2023/10/17 11:10:01;;;;;;;6.88;5.57;;;13.90;99.90;;;;;;5090719;28;20198;-81
2023/10/17 11:12:29;;;;;;;7.22;5.53;;;14.00;99.90;;;;;;5096386;28;20192;-82
2023/10/17 11:15:14;;;;;;;6.07;4.75;;;14.30;99.90;;;;;;5089313;28;20202;-82
2023/10/17 11:17:42;;;;;;;5.20;4.57;;;14.10;99.90;;;;;;5088114;28;20229;-82
2023/10/17 11:20:16;;;;;;;4.80;4.00;;;14.60;99.90;;;;;;5088740;28;20217;-81
2023/10/17 11:22:44;;;;;;;5.10;4.60;;;14.70;99.90;;;;;;5097951;28;20192;-81
2023/10/17 11:25:20;;;;;;;5.20;4.20;;;15.20;99.90;;;;;;5100643;28;20188;-82
2023/10/17 11:27:56;;;;;;;5.90;4.75;;;15.90;99.60;;;;;;5101373;28;20223;-81
2023/10/17 11:30:34;;;;;;;6.00;4.40;;;15.30;97.60;;;;;;5098360;28;20193;-81
2023/10/17 11:33:04;;;;;;;7.65;4.50;;;14.70;99.90;;;;;;5094698;28;20204;-83
2023/10/17 11:35:34;;;;;;;4.28;3.35;;;15.00;99.40;;;;;;5100500;28;20200;-81
2023/10/17 11:38:02;;;;;;;4.90;3.88;;;15.70;97.30;;;;;;5100390;28;20699;-82
2023/10/17 11:40:31;;;;;;;6.35;4.28;;;15.00;99.00;;;;;;5096320;28;20815;-82
2023/10/17 11:42:59;;;;;;;4.55;3.72;;;15.10;99.90;;;;;;5098197;28;20216;-82
2023/10/17 11:45:34;;;;;;;4.38;3.67;;;15.50;98.50;;;;;;5099248;28;20208;-81
2023/10/17 11:48:14;;;;;;;5.15;3.83;;;15.20;97.20;;;;;;5091857;28;20220;-83
2023/10/17 11:50:42;;;;;;;5.53;3.40;;;15.50;95.80;;;;;;5097781;28;20193;-82
2023/10/17 11:53:09;;;;;;;3.38;3.08;;;16.50;95.20;;;;;;5100093;28;20565;-82
2023/10/17 11:55:45;;;;;;;3.47;3.17;;;17.10;93.70;;;;;;5078165;28;20190;-81
2023/10/17 11:58:24;;;;;;;4.03;3.63;;;17.80;92.00;;;;;;5094877;28;20220;-81
2023/10/17 12:00:53;;;;;;;4.10;3.70;;;16.30;93.30;;;;;;5091493;28;20229;-82
2023/10/17 12:03:21;;;;;;;6.20;4.28;;;17.10;91.40;;;;;;5094724;28;20201;-82
2023/10/17 12:05:48;;;;;;;5.82;3.65;;;17.70;92.10;;;;;;5098538;28;20211;-84
2023/10/17 12:08:22;;;;;;;5.40;4.00;;;17.70;91.50;;;;;;5087408;28;20212;-81
2023/10/17 12:10:51;;;;;;;3.58;3.28;;;17.60;90.60;;;;;;5096182;28;20193;-82
2023/10/17 12:13:18;;;;;;;3.83;3.45;;;18.10;90.20;;;;;;5096545;28;20204;-83
2023/10/17 12:15:49;;;;;;;3.58;3.28;;;18.10;90.00;;;;;;5089112;28;20213;-81
2023/10/17 12:18:18;;;;;;;4.95;4.40;;;18.40;85.70;;;;;;5095840;28;20221;-83
2023/10/17 12:20:49;;;;;;;5.05;3.97;;;17.30;91.90;;;;;;5099187;28;20219;-82
2023/10/17 12:23:18;;;;;;;4.20;3.60;;;17.20;94.20;;;;;;5095653;28;20192;-82
2023/10/17 12:25:46;;;;;;;5.22;3.97;;;17.30;93.30;;;;;;5106881;28;20208;-83
2023/10/17 12:28:13;;;;;;;4.03;3.40;;;19.10;85.90;;;;;;5111240;28;20600;-82
2023/10/17 12:30:41;;;;;;;3.80;3.30;;;18.10;90.20;;;;;;5098816;28;20198;-83
2023/10/17 12:33:08;;;;;;;3.50;3.20;;;18.70;84.20;;;;;;5104178;28;20202;-82
2023/10/17 12:35:37;;;;;;;7.57;3.88;;;19.00;79.70;;;;;;5113808;28;20209;-83
2023/10/17 12:38:14;;;;;;;4.65;3.85;;;19.40;79.60;;;;;;5117838;28;20216;-82
2023/10/17 12:40:42;;;;;;;5.22;3.92;;;19.20;86.20;;;;;;5108649;28;20217;-83
2023/10/17 12:43:11;;;;;;;4.47;3.78;;;19.40;84.20;;;;;;5084028;28;20255;-82
2023/10/17 12:45:39;;;;;;;4.78;4.28;;;18.50;90.40;;;;;;5099127;28;20196;-83
2023/10/17 12:48:10;;;;;;;3.95;3.55;;;19.40;87.30;;;;;;5109802;28;20227;-83
2023/10/17 12:50:43;;;;;;;6.40;4.05;;;19.80;80.00;;;;;;5108015;28;20206;-83
2023/10/17 12:53:11;;;;;;;4.05;3.65;;;20.10;72.80;;;;;;5111012;28;20203;-83
2023/10/17 12:55:39;;;;;;;4.05;3.75;;;20.30;75.20;;;;;;5090363;28;20213;-83
2023/10/17 12:58:07;;;;;;;4.60;4.20;;;21.10;71.20;;;;;;5099240;28;20220;-80
2023/10/17 13:00:35;;;;;;;8.55;4.30;;;20.40;78.90;;;;;;5111485;28;20204;-83
2023/10/17 13:03:02;;;;;;;6.07;4.22;;;18.10;91.00;;;;;;5097892;28;20211;-84
2023/10/17 13:05:30;;;;;;;4.28;3.88;;;19.90;88.00;;;;;;5108520;28;20192;-83
2023/10/17 13:07:58;;;;;;;3.53;3.22;;;19.50;81.50;;;;;;5099789;28;20290;-83
2023/10/17 13:10:26;;;;;;;5.07;3.92;;;20.10;81.90;;;;;;5094846;28;20193;-83
2023/10/17 13:12:59;;;;;;;4.38;3.97;;;18.60;85.30;;;;;;5097046;28;20204;-86
2023/10/17 13:15:27;;;;;;;4.97;4.05;;;19.20;84.40;;;;;;5091749;28;20557;-82
2023/10/17 13:17:57;;;;;;;4.70;4.25;;;19.50;87.00;;;;;;5101766;28;20224;-82
2023/10/17 13:20:29;;;;;;;6.60;4.20;;;20.70;77.00;;;;;;5096363;28;20220;-82
2023/10/17 13:23:03;;;;;;;4.75;3.53;;;21.00;78.80;;;;;;5093139;28;20201;-82
2023/10/17 13:25:34;;;;;;;5.45;4.18;;;20.60;72.70;;;;;;5092870;28;20188;-81
2023/10/17 13:28:02;;;;;;;4.57;3.65;;;20.90;73.10;;;;;;5108152;28;20546;-82
2023/10/17 13:30:31;;;;;;;3.75;3.35;;;20.80;66.50;;;;;;5104818;28;20571;-82
2023/10/17 13:32:59;;;;;;;4.43;3.88;;;19.50;74.60;;;;;;5110722;28;20196;-82
2023/10/17 13:35:30;;;;;;;3.70;3.40;;;19.20;85.00;;;;;;5092332;28;20655;-82
2023/10/17 13:38:12;;;;;;;3.83;3.53;;;19.40;84.00;;;;;;5093649;28;20220;-82
2023/10/17 13:40:45;;;;;;;5.18;3.50;;;20.20;77.10;;;;;;5101465;28;20212;-82
2023/10/17 13:43:13;;;;;;;5.53;3.60;;;21.00;68.40;;;;;;5093409;28;20220;-82
2023/10/17 13:45:41;;;;;;;3.80;3.15;;;21.10;70.50;;;;;;5093130;28;20193;-82
2023/10/17 13:48:09;;;;;;;3.63;3.33;;;20.90;69.50;;;;;;5099822;28;20213;-82
2023/10/17 13:50:38;;;;;;;4.55;3.88;;;20.80;70.50;;;;;;5109362;28;20204;-82
2023/10/17 13:53:09;;;;;;;4.07;3.50;;;20.90;63.70;;;;;;5096284;28;20644;-82
2023/10/17 13:55:39;;;;;;;4.38;3.40;;;21.20;65.40;;;;;;5092997;28;20224;-82
2023/10/17 13:58:11;;;;;;;4.50;3.42;;;20.20;69.40;;;;;;5108959;28;20224;-82
2023/10/17 14:00:44;;;;;;;3.17;2.78;;;20.80;68.10;;;;;;5106553;28;20215;-82
2023/10/17 14:03:13;;;;;;;4.25;3.20;;;20.80;66.30;;;;;;5103210;28;20199;-82
2023/10/17 14:05:44;;;;;;;4.00;3.08;;;20.10;74.30;;;;;;5098817;28;20208;-82
2023/10/17 14:08:13;;;;;;;3.15;2.85;;;21.00;63.50;;;;;;5085913;28;20704;-82
2023/10/17 14:10:43;;;;;;;4.45;3.10;;;20.20;69.90;;;;;;5100328;28;20205;-82
2023/10/17 14:13:12;;;;;;;3.85;3.55;;;20.50;68.80;;;;;;5099863;28;20205;-82
2023/10/17 14:15:40;;;;;;;4.10;3.33;;;18.90;74.30;;;;;;5098825;28;20573;-82
2023/10/17 14:18:13;;;;;;;3.50;3.20;;;20.50;70.90;;;;;;5091529;28;20225;-82
2023/10/17 14:21:04;;;;;;;3.63;3.33;;;21.00;64.90;;;;;;5100167;28;20208;-84
2023/10/17 14:23:32;;;;;;;4.13;3.22;;;20.20;64.60;;;;;;5096269;28;20205;-84
2023/10/17 14:26:07;;;;;;;3.08;2.72;;;20.60;70.80;;;;;;5088448;28;20212;-82
2023/10/17 14:28:45;;;;;;;3.53;2.97;;;20.30;68.10;;;;;;5097771;28;20231;-81
2023/10/17 14:31:12;;;;;;;3.00;2.70;;;19.60;77.80;;;;;;5089158;28;20197;-82
2023/10/17 14:33:41;;;;;;;4.22;3.08;;;20.00;76.50;;;;;;5091024;28;20212;-85
2023/10/17 14:36:09;;;;;;;3.50;3.00;;;19.50;75.10;;;;;;5098011;28;20205;-84
2023/10/17 14:38:37;;;;;;;3.30;3.00;;;18.90;78.40;;;;;;5101498;28;20228;-84
2023/10/17 14:41:10;;;;;;;3.25;2.95;;;18.30;81.30;;;;;;5095791;28;20221;-84
2023/10/17 14:43:38;;;;;;;3.42;3.13;;;17.70;82.90;;;;;;5087943;28;20201;-83
2023/10/17 14:46:06;;;;;;;4.22;2.92;;;16.60;91.90;;;;;;5085748;28;20563;-83
2023/10/17 14:48:36;;;;;;;3.70;3.40;;;16.40;92.90;;;;;;5083542;28;20229;-83